Time;durP1;ratioP1;P1;durP2;ratioP2;P2;SDS_P1;SDS_P2;PMS_P1;PMS_P2;Temp;Humidity;BMP_temperature;BMP_pressure;BME280_temperature;BME280_humidity;BME280_pressure;Samples;Min_cycle;Max_cycle;Signal;HPM_P1;HPM_P2
2022/08/19 00:02:04;;;;;;;35.28;29.25;;;19.20;80.00;;;;;;5001377;28;20053;-73
2022/08/19 00:04:35;;;;;;;33.28;27.73;;;19.10;80.30;;;;;;4995040;28;20070;-71
2022/08/19 00:07:02;;;;;;;31.75;26.85;;;19.10;80.50;;;;;;4999365;28;20099;-72
2022/08/19 00:09:29;;;;;;;33.03;27.88;;;19.10;80.30;;;;;;4996108;28;20038;-71
2022/08/19 00:11:56;;;;;;;34.72;28.35;;;19.00;80.60;;;;;;4989037;28;20152;-71
2022/08/19 00:14:23;;;;;;;34.25;27.17;;;18.90;80.80;;;;;;4989586;28;20065;-71
2022/08/19 00:16:51;;;;;;;35.58;27.58;;;18.90;80.90;;;;;;4999091;28;20045;-70
2022/08/19 00:19:17;;;;;;;32.42;26.20;;;18.90;81.10;;;;;;4997701;28;20034;-71
2022/08/19 00:21:43;;;;;;;34.30;27.38;;;18.90;81.10;;;;;;4994019;28;20172;-71
2022/08/19 00:24:11;;;;;;;34.47;27.65;;;18.80;81.10;;;;;;4992871;28;20441;-71
2022/08/19 00:26:37;;;;;;;34.45;26.30;;;18.80;81.10;;;;;;5013588;28;20034;-70
2022/08/19 00:29:05;;;;;;;29.85;25.27;;;18.70;81.30;;;;;;5002962;28;20025;-71
2022/08/19 00:31:31;;;;;;;33.30;26.90;;;18.80;81.50;;;;;;5011421;28;20153;-70
2022/08/19 00:33:56;;;;;;;33.08;27.33;;;18.80;81.40;;;;;;5028990;28;20360;-71
2022/08/19 00:36:22;;;;;;;31.48;24.48;;;18.70;81.60;;;;;;4994325;28;20542;-70
2022/08/19 00:38:49;;;;;;;35.80;28.23;;;18.80;81.50;;;;;;4996404;28;20034;-71
2022/08/19 00:41:20;;;;;;;33.80;27.85;;;18.70;81.50;;;;;;4986922;28;20073;-70
2022/08/19 00:44:07;;;;;;;33.38;26.48;;;18.60;81.90;;;;;;4988881;28;20406;-71
2022/08/19 00:46:36;;;;;;;38.05;29.10;;;18.60;82.00;;;;;;4987663;28;20027;-71
2022/08/19 00:49:26;;;;;;;30.83;26.13;;;18.60;82.10;;;;;;4987362;28;20081;-71
2022/08/19 00:51:58;;;;;;;33.60;25.70;;;18.60;82.40;;;;;;4991332;28;20038;-71
2022/08/19 00:54:24;;;;;;;34.58;26.25;;;18.60;82.50;;;;;;4993388;28;20037;-71
2022/08/19 00:56:51;;;;;;;36.80;28.02;;;18.60;82.40;;;;;;4999881;28;20488;-71
2022/08/19 00:59:18;;;;;;;35.03;26.95;;;18.60;82.60;;;;;;4994687;28;20057;-71
2022/08/19 01:01:45;;;;;;;35.78;27.05;;;18.50;82.90;;;;;;4987340;28;20058;-73
2022/08/19 01:04:12;;;;;;;38.83;27.88;;;18.50;83.00;;;;;;4990774;28;20390;-71
2022/08/19 01:06:39;;;;;;;37.28;27.27;;;18.40;83.20;;;;;;5001072;28;20034;-71
2022/08/19 01:09:05;;;;;;;35.33;27.13;;;18.30;83.30;;;;;;5031216;28;20220;-71
2022/08/19 01:11:35;;;;;;;32.63;26.17;;;18.30;83.20;;;;;;4998629;28;20045;-71
2022/08/19 01:14:00;;;;;;;32.88;25.02;;;18.40;83.50;;;;;;4988950;28;20130;-71
2022/08/19 01:16:28;;;;;;;34.08;25.23;;;18.40;83.50;;;;;;4986806;28;20465;-72
2022/08/19 01:18:56;;;;;;;31.42;25.13;;;18.30;83.60;;;;;;4991134;28;20030;-71
2022/08/19 01:21:40;;;;;;;34.17;26.20;;;18.30;83.90;;;;;;4985488;28;20042;-70
2022/08/19 01:24:06;;;;;;;33.50;24.95;;;18.30;84.10;;;;;;4992937;28;20048;-71
2022/08/19 01:26:37;;;;;;;36.42;26.38;;;18.20;84.20;;;;;;4988405;28;20031;-71
2022/08/19 01:29:03;;;;;;;34.55;25.77;;;18.20;84.20;;;;;;4989136;28;20038;-70
2022/08/19 01:31:32;;;;;;;34.25;26.33;;;18.20;84.40;;;;;;4988154;28;20026;-71
2022/08/19 01:33:58;;;;;;;32.00;25.40;;;18.10;84.60;;;;;;4995514;28;20042;-72
2022/08/19 01:36:36;;;;;;;34.22;25.30;;;18.10;84.60;;;;;;4987257;28;20113;-71
2022/08/19 01:39:06;;;;;;;37.97;25.25;;;18.10;84.50;;;;;;4993646;28;20034;-72
2022/08/19 01:41:32;;;;;;;34.63;25.20;;;18.10;84.70;;;;;;4999581;28;20121;-70
2022/08/19 01:44:00;;;;;;;30.83;23.65;;;18.00;85.00;;;;;;4999313;28;20054;-71
2022/08/19 01:46:26;;;;;;;33.88;24.45;;;18.00;85.10;;;;;;4981634;28;20592;-70
2022/08/19 01:48:52;;;;;;;32.50;24.75;;;18.00;85.10;;;;;;4993650;28;20049;-72
2022/08/19 01:51:17;;;;;;;33.28;24.70;;;18.00;85.10;;;;;;4991601;28;20073;-70
2022/08/19 01:53:47;;;;;;;32.38;25.08;;;17.90;85.20;;;;;;4993054;28;20042;-70
2022/08/19 01:56:13;;;;;;;29.10;23.10;;;17.90;85.40;;;;;;4992779;28;20041;-71
2022/08/19 01:58:46;;;;;;;35.58;24.55;;;18.00;85.40;;;;;;4988528;28;20042;-71
2022/08/19 02:01:12;;;;;;;39.70;26.02;;;17.90;85.40;;;;;;4999744;28;20034;-70
2022/08/19 02:03:38;;;;;;;32.47;25.73;;;17.90;85.50;;;;;;4993460;28;20046;-70
2022/08/19 02:06:05;;;;;;;34.90;25.17;;;17.90;85.60;;;;;;4999668;28;20034;-70
2022/08/19 02:08:32;;;;;;;35.88;26.10;;;17.90;85.60;;;;;;4991796;28;20046;-70
2022/08/19 02:10:58;;;;;;;35.08;25.20;;;17.80;85.50;;;;;;4987509;28;20081;-72
2022/08/19 02:13:24;;;;;;;32.92;24.85;;;17.80;85.50;;;;;;4989116;28;20041;-71
2022/08/19 02:15:50;;;;;;;32.33;25.58;;;17.80;85.70;;;;;;4992345;28;20085;-71
2022/08/19 02:18:16;;;;;;;34.55;26.05;;;17.80;85.60;;;;;;4998348;28;20030;-71
2022/08/19 02:20:43;;;;;;;31.52;24.20;;;17.80;85.70;;;;;;4997769;28;20042;-70
2022/08/19 02:23:11;;;;;;;36.13;24.92;;;17.80;85.70;;;;;;4997006;28;20045;-71
2022/08/19 02:25:37;;;;;;;34.47;24.90;;;17.70;85.70;;;;;;4993558;28;20057;-72
2022/08/19 02:28:03;;;;;;;31.92;24.40;;;17.80;85.70;;;;;;4999618;28;20167;-71
2022/08/19 02:30:28;;;;;;;34.15;25.10;;;17.70;85.50;;;;;;4986360;28;20042;-73
2022/08/19 02:32:54;;;;;;;33.40;25.33;;;17.70;85.50;;;;;;4992587;28;20120;-71
2022/08/19 02:35:20;;;;;;;29.95;24.02;;;17.70;85.60;;;;;;4997537;28;20116;-71
2022/08/19 02:40:35;;;;;;;28.80;22.98;;;17.70;85.70;;;;;;5006698;28;20056;-71
2022/08/19 02:43:08;;;;;;;31.75;22.33;;;17.70;85.80;;;;;;5011078;28;20323;-71
2022/08/19 02:45:35;;;;;;;29.80;22.80;;;17.70;85.80;;;;;;5009429;28;20092;-71
2022/08/19 02:48:01;;;;;;;31.63;23.33;;;17.70;85.90;;;;;;5013933;28;20065;-71
2022/08/19 02:50:27;;;;;;;30.90;21.77;;;17.60;86.20;;;;;;5007211;28;20084;-70
2022/08/19 02:52:53;;;;;;;30.08;21.55;;;17.60;86.00;;;;;;5009573;28;20034;-71
2022/08/19 02:55:19;;;;;;;32.03;21.95;;;17.70;86.00;;;;;;5014908;28;20520;-70
2022/08/19 02:57:44;;;;;;;26.75;21.50;;;17.70;85.70;;;;;;5007608;28;20121;-71
2022/08/19 03:00:14;;;;;;;29.75;21.10;;;17.80;85.80;;;;;;5008718;28;20188;-70
2022/08/19 03:02:40;;;;;;;29.08;22.27;;;17.80;85.70;;;;;;5012697;28;20064;-71
2022/08/19 03:05:07;;;;;;;25.95;20.95;;;17.80;85.60;;;;;;5018477;28;20041;-72
2022/08/19 03:07:33;;;;;;;30.20;21.60;;;17.80;85.60;;;;;;5020808;28;20200;-71
2022/08/19 03:09:59;;;;;;;26.92;20.98;;;17.80;85.60;;;;;;5010832;28;20080;-72
2022/08/19 03:12:24;;;;;;;26.08;20.50;;;17.80;85.60;;;;;;5015872;28;20693;-72
2022/08/19 03:14:51;;;;;;;28.92;22.17;;;17.80;85.50;;;;;;5017100;28;20034;-71
2022/08/19 03:17:17;;;;;;;29.33;21.55;;;17.80;85.60;;;;;;5011188;28;20034;-71
2022/08/19 03:19:43;;;;;;;30.52;21.90;;;17.80;85.80;;;;;;5020998;28;20056;-71
2022/08/19 03:22:09;;;;;;;29.75;21.13;;;17.70;85.80;;;;;;5016999;28;20414;-71
2022/08/19 03:24:35;;;;;;;27.85;20.35;;;17.70;85.80;;;;;;5020407;28;20496;-71
2022/08/19 03:27:01;;;;;;;28.85;20.13;;;17.70;85.80;;;;;;5015498;28;20045;-71
2022/08/19 03:29:28;;;;;;;23.92;18.88;;;17.70;85.70;;;;;;5019466;28;20037;-71
2022/08/19 03:31:54;;;;;;;29.17;20.13;;;17.70;85.90;;;;;;5013981;28;20489;-72
2022/08/19 03:34:29;;;;;;;32.22;20.90;;;17.70;85.90;;;;;;5015438;28;20045;-71
2022/08/19 03:36:57;;;;;;;28.50;19.60;;;17.60;85.80;;;;;;5018563;28;20474;-72
2022/08/19 03:39:25;;;;;;;28.08;19.90;;;17.70;85.90;;;;;;5042267;28;20094;-73
2022/08/19 03:41:52;;;;;;;27.55;21.38;;;17.60;86.00;;;;;;5012669;28;20367;-71
2022/08/19 03:44:21;;;;;;;26.67;19.80;;;17.60;85.90;;;;;;5019036;28;20033;-71
2022/08/19 03:46:54;;;;;;;27.40;19.45;;;17.60;86.00;;;;;;5014444;28;20034;-72
2022/08/19 03:49:23;;;;;;;28.98;20.10;;;17.60;86.00;;;;;;5017241;28;20497;-71
2022/08/19 03:51:50;;;;;;;24.73;19.00;;;17.60;86.10;;;;;;5013124;28;20500;-71
2022/08/19 03:54:18;;;;;;;27.67;19.90;;;17.50;86.20;;;;;;5012689;28;20037;-71
2022/08/19 03:56:46;;;;;;;27.88;19.27;;;17.50;86.30;;;;;;5008383;28;20057;-71
2022/08/19 03:59:15;;;;;;;25.77;18.38;;;17.50;86.40;;;;;;5021427;28;20073;-71
2022/08/19 04:01:42;;;;;;;27.00;19.38;;;17.50;86.40;;;;;;5008484;28;20057;-72
2022/08/19 04:04:08;;;;;;;24.85;18.40;;;17.50;86.50;;;;;;5021021;28;20103;-71
2022/08/19 04:06:36;;;;;;;27.27;18.38;;;17.40;86.60;;;;;;5019145;28;20470;-71
2022/08/19 04:09:04;;;;;;;24.13;17.80;;;17.40;86.60;;;;;;5015589;28;20611;-71
2022/08/19 04:11:34;;;;;;;25.17;18.17;;;17.40;86.80;;;;;;5016188;28;20239;-71
2022/08/19 04:14:00;;;;;;;25.23;18.63;;;17.40;86.70;;;;;;5025890;28;20033;-73
2022/08/19 04:16:31;;;;;;;25.38;18.05;;;17.40;86.70;;;;;;5018570;28;20061;-72
2022/08/19 04:19:00;;;;;;;24.08;17.73;;;17.40;86.80;;;;;;5021058;28;20033;-71
2022/08/19 04:21:27;;;;;;;26.02;19.63;;;17.50;86.90;;;;;;5014951;28;20040;-72
2022/08/19 04:23:54;;;;;;;24.70;18.23;;;17.60;86.80;;;;;;5015330;28;20069;-71
2022/08/19 04:26:33;;;;;;;27.63;19.45;;;17.50;86.70;;;;;;5015466;28;20029;-71
2022/08/19 04:29:01;;;;;;;23.83;18.45;;;17.60;86.70;;;;;;5014566;28;20033;-73
2022/08/19 04:31:31;;;;;;;28.58;18.80;;;17.60;86.70;;;;;;5013265;28;20033;-70
2022/08/19 04:33:58;;;;;;;26.27;18.17;;;17.60;86.70;;;;;;5017818;28;20557;-70
2022/08/19 04:36:30;;;;;;;21.65;17.63;;;17.60;86.70;;;;;;5010799;28;20064;-71
2022/08/19 04:38:59;;;;;;;23.85;18.65;;;17.60;86.90;;;;;;5018954;28;20481;-71
2022/08/19 04:44:09;;;;;;;;;;;17.60;86.90;;;;;;5012165;28;20048;-71
2022/08/19 04:46:36;;;;;;;23.25;16.90;;;17.60;86.80;;;;;;5008859;28;20241;-71
2022/08/19 04:49:04;;;;;;;25.55;17.67;;;17.50;87.00;;;;;;5017369;28;20049;-71
2022/08/19 04:51:31;;;;;;;21.77;15.73;;;17.50;87.20;;;;;;5013189;28;20088;-71
2022/08/19 04:53:57;;;;;;;20.70;16.00;;;17.60;87.20;;;;;;5005928;28;20038;-71
2022/08/19 04:56:26;;;;;;;26.73;17.02;;;17.60;87.30;;;;;;5020513;28;20096;-70
2022/08/19 04:58:53;;;;;;;26.40;17.02;;;17.70;87.30;;;;;;5018100;28;20517;-71
2022/08/19 05:01:21;;;;;;;24.48;16.88;;;17.70;87.50;;;;;;5010397;28;20030;-70
2022/08/19 05:03:48;;;;;;;24.08;17.15;;;17.70;87.60;;;;;;5013720;28;20045;-70
2022/08/19 05:06:16;;;;;;;28.33;15.80;;;17.80;87.70;;;;;;5018340;28;20413;-71
2022/08/19 05:08:43;;;;;;;25.20;16.65;;;17.90;87.70;;;;;;5014621;28;20038;-70
2022/08/19 05:11:15;;;;;;;27.83;17.05;;;17.90;87.70;;;;;;5022237;28;20072;-70
2022/08/19 05:13:42;;;;;;;27.38;16.20;;;18.00;88.00;;;;;;5015898;28;20042;-69
2022/08/19 05:16:10;;;;;;;25.20;16.20;;;18.10;88.00;;;;;;5001448;28;20117;-70
2022/08/19 05:24:08;;;;;;;22.10;15.45;;;18.30;88.30;;;;;;4990316;28;20454;-70
2022/08/19 05:26:38;;;;;;;26.48;15.88;;;18.40;88.30;;;;;;4997636;28;20084;-71
2022/08/19 05:29:04;;;;;;;23.08;16.27;;;18.50;88.30;;;;;;4987519;28;20077;-70
2022/08/19 05:31:30;;;;;;;25.70;16.42;;;18.60;88.20;;;;;;4988467;28;20117;-71
2022/08/19 05:33:58;;;;;;;24.67;15.82;;;18.60;88.20;;;;;;4990640;28;20041;-70
2022/08/19 05:36:25;;;;;;;20.05;14.35;;;18.60;88.00;;;;;;4985408;28;20282;-71
2022/08/19 05:38:52;;;;;;;22.38;15.18;;;18.80;87.90;;;;;;4991541;28;20084;-70
2022/08/19 05:41:19;;;;;;;22.17;15.07;;;18.90;87.80;;;;;;4981832;28;20042;-69
2022/08/19 05:43:45;;;;;;;22.08;15.13;;;19.00;87.60;;;;;;4999491;28;20415;-70
2022/08/19 05:46:18;;;;;;;20.05;14.52;;;19.10;87.50;;;;;;4988595;28;20041;-71
2022/08/19 05:48:44;;;;;;;20.38;15.82;;;19.30;87.10;;;;;;4990291;28;20099;-71
2022/08/19 05:51:10;;;;;;;21.85;15.73;;;19.40;86.50;;;;;;4988098;28;20109;-70
2022/08/19 05:53:36;;;;;;;25.08;15.07;;;19.50;86.20;;;;;;4990625;28;20509;-72
2022/08/19 05:56:12;;;;;;;22.98;14.57;;;19.60;86.00;;;;;;4987214;28;20549;-72
2022/08/19 05:58:37;;;;;;;21.67;14.48;;;19.70;85.70;;;;;;4989406;28;20134;-71
2022/08/19 06:01:09;;;;;;;24.05;15.45;;;19.70;85.80;;;;;;4994101;28;20418;-70
2022/08/19 06:03:37;;;;;;;23.00;13.93;;;19.80;85.60;;;;;;4996464;28;20076;-71
2022/08/19 06:06:03;;;;;;;20.13;14.05;;;19.80;85.60;;;;;;4986581;28;20038;-71
2022/08/19 06:08:29;;;;;;;23.63;14.65;;;19.90;85.70;;;;;;4993276;28;20521;-70
2022/08/19 06:10:55;;;;;;;22.48;13.77;;;19.80;85.70;;;;;;4991704;28;20046;-70
2022/08/19 06:13:22;;;;;;;19.27;13.60;;;19.90;85.70;;;;;;4993891;28;20586;-70
2022/08/19 06:15:48;;;;;;;23.08;13.93;;;19.80;85.90;;;;;;4984652;28;20037;-71
2022/08/19 06:18:14;;;;;;;28.35;15.48;;;19.90;85.90;;;;;;4986636;28;20112;-71
2022/08/19 06:20:41;;;;;;;21.90;14.43;;;19.90;86.10;;;;;;4995269;28;20039;-71
2022/08/19 06:23:08;;;;;;;19.90;13.82;;;20.00;85.90;;;;;;4997549;28;20513;-71
2022/08/19 06:25:34;;;;;;;23.58;15.15;;;20.10;85.80;;;;;;4991416;28;20038;-71
2022/08/19 06:28:00;;;;;;;22.95;14.80;;;20.10;85.40;;;;;;4988634;28;20038;-71
2022/08/19 06:30:26;;;;;;;21.85;14.02;;;20.10;85.60;;;;;;4989440;28;20422;-71
2022/08/19 06:32:52;;;;;;;24.02;14.77;;;20.20;85.50;;;;;;4988718;28;20053;-72
2022/08/19 06:35:17;;;;;;;17.35;13.50;;;20.10;85.30;;;;;;4995447;28;20033;-71
2022/08/19 06:37:44;;;;;;;20.10;14.23;;;20.10;85.50;;;;;;4993036;28;20658;-71
2022/08/19 06:40:12;;;;;;;18.60;13.60;;;20.20;85.60;;;;;;4991109;28;20050;-71
2022/08/19 06:42:38;;;;;;;17.77;13.15;;;20.10;85.50;;;;;;4994250;28;20035;-72
2022/08/19 06:45:05;;;;;;;19.40;14.60;;;20.20;85.50;;;;;;5001723;28;20034;-73
2022/08/19 06:47:32;;;;;;;19.73;14.05;;;20.20;85.60;;;;;;4994020;28;20045;-72
2022/08/19 06:50:04;;;;;;;18.15;13.45;;;20.20;85.50;;;;;;5005759;28;20034;-72
2022/08/19 06:52:32;;;;;;;19.90;13.60;;;20.30;85.80;;;;;;5001327;28;20168;-71
2022/08/19 06:54:59;;;;;;;17.83;13.30;;;20.30;85.70;;;;;;5005755;28;20099;-71
2022/08/19 06:57:25;;;;;;;17.85;13.55;;;20.40;85.40;;;;;;5000695;28;20034;-71
2022/08/19 06:59:51;;;;;;;18.27;12.88;;;20.50;85.10;;;;;;4994223;28;20050;-70
2022/08/19 07:02:18;;;;;;;19.90;13.90;;;20.60;85.10;;;;;;4990428;28;20101;-72
2022/08/19 07:04:44;;;;;;;15.60;12.50;;;20.60;85.00;;;;;;4986358;28;20038;-72
2022/08/19 07:07:14;;;;;;;19.20;12.98;;;20.70;84.90;;;;;;4988845;28;20042;-72
2022/08/19 07:09:43;;;;;;;15.50;12.27;;;20.80;84.40;;;;;;5001011;28;20034;-72
2022/08/19 07:12:11;;;;;;;16.05;12.43;;;20.80;84.10;;;;;;5006770;28;20045;-74
2022/08/19 07:14:38;;;;;;;18.02;12.30;;;20.80;84.00;;;;;;5001138;28;20382;-73
2022/08/19 07:17:07;;;;;;;18.55;12.10;;;20.90;84.00;;;;;;4996427;28;20049;-73
2022/08/19 07:19:34;;;;;;;22.33;12.45;;;21.00;83.50;;;;;;4999533;28;20114;-73
2022/08/19 07:22:02;;;;;;;17.98;11.95;;;21.10;83.30;;;;;;4994651;28;20478;-73
2022/08/19 07:24:28;;;;;;;19.38;11.35;;;21.10;83.50;;;;;;4996330;28;20040;-72
2022/08/19 07:26:56;;;;;;;15.90;11.30;;;21.10;83.40;;;;;;4993655;28;20054;-72
2022/08/19 07:29:23;;;;;;;17.48;11.60;;;21.10;83.40;;;;;;4991454;28;20034;-73
2022/08/19 07:31:50;;;;;;;15.75;11.18;;;21.00;83.30;;;;;;4988002;28;20628;-72
2022/08/19 07:34:16;;;;;;;16.25;11.52;;;21.00;84.10;;;;;;5000210;28;20475;-73
2022/08/19 07:36:42;;;;;;;14.73;10.32;;;21.00;83.70;;;;;;4989987;28;20040;-72
2022/08/19 07:39:18;;;;;;;18.00;10.18;;;21.00;83.50;;;;;;4984094;28;20089;-73
2022/08/19 07:41:44;;;;;;;14.75;10.02;;;21.10;83.30;;;;;;5004365;28;20029;-73
2022/08/19 07:44:12;;;;;;;15.25;10.07;;;21.10;83.30;;;;;;4977332;28;20035;-75
2022/08/19 07:46:44;;;;;;;15.45;10.30;;;21.20;83.40;;;;;;4988634;28;20115;-73
2022/08/19 07:49:18;;;;;;;14.50;10.50;;;21.30;82.80;;;;;;4982583;28;20062;-73
2022/08/19 07:52:10;;;;;;;16.50;11.15;;;21.30;82.70;;;;;;4989165;28;20046;-73
2022/08/19 07:54:37;;;;;;;14.43;9.90;;;21.20;82.80;;;;;;4989543;28;20085;-73
2022/08/19 07:57:04;;;;;;;14.13;10.00;;;21.20;83.00;;;;;;5004067;28;20034;-73
2022/08/19 07:59:30;;;;;;;16.38;10.32;;;21.30;82.80;;;;;;4998324;28;20089;-72
2022/08/19 08:01:59;;;;;;;16.70;9.95;;;21.30;82.80;;;;;;4993643;28;20030;-72
2022/08/19 08:09:53;;;;;;;14.07;10.20;;;21.40;82.60;;;;;;4995537;28;20439;-72
2022/08/19 08:12:28;;;;;;;18.02;11.57;;;21.50;82.80;;;;;;4986390;28;20054;-71
2022/08/19 08:14:56;;;;;;;13.18;10.88;;;21.40;82.70;;;;;;4988123;28;20030;-72
2022/08/19 08:17:25;;;;;;;15.50;11.90;;;21.50;82.80;;;;;;4983100;28;20046;-72
2022/08/19 08:19:50;;;;;;;18.33;14.00;;;21.60;82.90;;;;;;4988379;28;20347;-72
2022/08/19 08:25:16;;;;;;;19.55;14.75;;;21.50;82.70;;;;;;4989065;28;20092;-74
2022/08/19 08:27:43;;;;;;;18.08;14.07;;;21.60;82.50;;;;;;4985158;28;20154;-74
2022/08/19 08:30:12;;;;;;;15.90;12.85;;;21.70;82.10;;;;;;4997536;28;20539;-71
2022/08/19 08:32:39;;;;;;;14.52;12.25;;;21.90;81.50;;;;;;4982454;28;20031;-72
2022/08/19 08:35:08;;;;;;;17.92;13.63;;;22.00;81.00;;;;;;4985358;28;20542;-72
2022/08/19 08:37:34;;;;;;;16.50;13.77;;;21.90;80.70;;;;;;4989587;28;20054;-73
2022/08/19 08:40:06;;;;;;;22.77;17.92;;;22.00;80.80;;;;;;4990486;28;20558;-74
2022/08/19 08:42:36;;;;;;;18.73;16.65;;;21.80;81.10;;;;;;4989794;28;20126;-76
2022/08/19 08:45:15;;;;;;;17.48;14.98;;;21.70;81.50;;;;;;4979086;28;20034;-73
2022/08/19 08:47:46;;;;;;;18.55;13.55;;;21.70;81.60;;;;;;4989904;28;20073;-72
2022/08/19 08:50:41;;;;;;;14.65;9.95;;;21.70;81.70;;;;;;4991287;28;20043;-73
2022/08/19 08:53:08;;;;;;;12.13;8.73;;;21.80;81.30;;;;;;4977854;28;20054;-73
2022/08/19 08:55:34;;;;;;;9.98;7.15;;;21.80;81.20;;;;;;4984936;28;20526;-74
2022/08/19 08:58:09;;;;;;;10.30;6.65;;;22.00;80.50;;;;;;4985102;28;20037;-73
2022/08/19 09:00:42;;;;;;;9.43;5.18;;;22.10;80.10;;;;;;4990233;28;20035;-73
2022/08/19 09:03:20;;;;;;;9.10;5.22;;;22.30;79.40;;;;;;4991279;28;20502;-72
2022/08/19 09:05:58;;;;;;;7.97;5.15;;;22.60;79.00;;;;;;4984764;28;20027;-73
2022/08/19 09:08:44;;;;;;;9.43;5.00;;;22.80;78.10;;;;;;4992812;28;20254;-73
2022/08/19 09:11:37;;;;;;;9.10;5.07;;;23.10;77.30;;;;;;4991717;28;20398;-73
2022/08/19 09:14:16;;;;;;;8.25;4.30;;;23.30;75.40;;;;;;4987059;28;20483;-71
2022/08/19 09:16:41;;;;;;;8.38;4.10;;;23.60;75.40;;;;;;4986254;28;20040;-71
2022/08/19 09:19:08;;;;;;;9.63;4.30;;;23.80;75.00;;;;;;4994632;28;20034;-72
2022/08/19 09:21:34;;;;;;;8.98;4.60;;;24.10;72.90;;;;;;4995602;28;20378;-71
2022/08/19 09:24:04;;;;;;;7.70;4.15;;;24.20;72.30;;;;;;4997205;28;20500;-71
2022/08/19 09:26:32;;;;;;;13.32;8.40;;;24.40;71.40;;;;;;4999292;28;20050;-72
2022/08/19 09:28:59;;;;;;;11.88;8.75;;;24.40;71.30;;;;;;4993118;28;20066;-71
2022/08/19 09:31:27;;;;;;;12.38;9.48;;;24.50;71.00;;;;;;4988725;28;20030;-72
2022/08/19 09:33:56;;;;;;;9.05;7.07;;;24.30;71.00;;;;;;4997037;28;20066;-71
2022/08/19 09:36:24;;;;;;;7.43;3.92;;;24.60;70.20;;;;;;4986775;28;20766;-72
2022/08/19 09:38:51;;;;;;;6.18;3.70;;;24.40;70.40;;;;;;4989560;28;20509;-71
2022/08/19 09:41:20;;;;;;;7.88;3.55;;;24.40;70.20;;;;;;4996483;28;20089;-72
2022/08/19 09:43:51;;;;;;;6.75;3.80;;;24.10;70.80;;;;;;4995633;28;20044;-71
2022/08/19 09:46:20;;;;;;;6.22;3.35;;;24.10;71.60;;;;;;4997221;28;20048;-71
2022/08/19 09:48:48;;;;;;;7.55;3.63;;;24.10;70.80;;;;;;5014648;28;20096;-72
2022/08/19 09:51:23;;;;;;;6.40;3.88;;;24.10;72.00;;;;;;4987737;28;20033;-71
2022/08/19 09:53:50;;;;;;;7.95;3.10;;;24.10;72.20;;;;;;5002782;28;20030;-72
2022/08/19 09:56:16;;;;;;;7.28;3.80;;;24.00;72.30;;;;;;5000408;28;20036;-72
2022/08/19 09:58:42;;;;;;;7.65;3.70;;;23.70;72.90;;;;;;4995586;28;20060;-72
2022/08/19 10:01:09;;;;;;;6.18;3.55;;;23.70;72.70;;;;;;4989858;28;20105;-71
2022/08/19 10:03:36;;;;;;;7.90;3.17;;;23.60;72.80;;;;;;4992066;28;20045;-72
2022/08/19 10:06:04;;;;;;;6.78;3.20;;;23.50;72.80;;;;;;4985415;28;20038;-73
2022/08/19 10:08:34;;;;;;;6.72;3.28;;;23.60;72.70;;;;;;4985801;28;20060;-72
2022/08/19 10:11:02;;;;;;;5.78;2.92;;;23.50;73.00;;;;;;4985160;28;20114;-73
2022/08/19 10:13:29;;;;;;;4.45;2.72;;;23.60;72.70;;;;;;4985590;28;20050;-72
2022/08/19 10:16:05;;;;;;;7.40;2.80;;;23.50;73.10;;;;;;4997374;28;20030;-72
2022/08/19 10:18:33;;;;;;;7.35;2.70;;;23.60;73.20;;;;;;4996199;28;20026;-72
2022/08/19 10:21:13;;;;;;;7.32;2.30;;;23.60;73.20;;;;;;4987418;28;20022;-73
2022/08/19 10:23:44;;;;;;;5.55;2.30;;;23.60;73.20;;;;;;4980279;28;20073;-72
2022/08/19 10:26:12;;;;;;;4.10;1.80;;;23.40;74.10;;;;;;4991753;28;20160;-72
2022/08/19 10:28:38;;;;;;;4.75;1.88;;;23.50;73.40;;;;;;4980317;28;20069;-72
2022/08/19 10:31:17;;;;;;;5.68;2.20;;;23.70;72.40;;;;;;4985321;28;20474;-72
2022/08/19 10:33:43;;;;;;;7.47;2.10;;;23.80;72.60;;;;;;4978123;28;20065;-73
2022/08/19 10:36:17;;;;;;;5.25;1.90;;;24.10;71.40;;;;;;4969378;28;20118;-72
2022/08/19 10:38:44;;;;;;;3.72;1.63;;;24.10;71.00;;;;;;4982238;28;20039;-72
2022/08/19 10:41:17;;;;;;;2.70;1.65;;;24.10;71.40;;;;;;4970076;28;20125;-72
2022/08/19 10:43:44;;;;;;;4.03;1.75;;;24.10;70.60;;;;;;4981110;28;20042;-72
2022/08/19 10:46:13;;;;;;;2.47;1.48;;;23.80;72.30;;;;;;4981357;28;20080;-72
2022/08/19 10:48:39;;;;;;;5.40;1.70;;;23.90;72.40;;;;;;4983132;28;20038;-72
2022/08/19 10:53:50;;;;;;;3.15;1.83;;;23.70;72.70;;;;;;4982549;28;20065;-73
2022/08/19 10:59:02;;;;;;;3.97;2.03;;;24.00;72.30;;;;;;4983677;28;20554;-72
2022/08/19 11:01:29;;;;;;;5.72;2.10;;;24.00;71.30;;;;;;4994148;28;20486;-72
2022/08/19 11:03:57;;;;;;;4.53;2.80;;;24.10;70.90;;;;;;4988945;28;20038;-72
2022/08/19 11:06:24;;;;;;;5.60;2.75;;;24.20;70.20;;;;;;4991611;28;20084;-72
2022/08/19 11:08:51;;;;;;;5.10;2.85;;;24.20;70.40;;;;;;4989204;28;20627;-72
2022/08/19 11:11:17;;;;;;;5.07;2.80;;;24.10;71.00;;;;;;4985343;28;20046;-74
2022/08/19 11:13:45;;;;;;;5.88;2.70;;;24.10;70.80;;;;;;4989695;28;20072;-72
2022/08/19 11:16:14;;;;;;;6.40;3.28;;;24.30;70.30;;;;;;4987821;28;20351;-72
2022/08/19 11:18:44;;;;;;;6.18;2.88;;;24.30;69.80;;;;;;4992430;28;20454;-73
2022/08/19 11:21:17;;;;;;;6.35;2.90;;;24.20;70.80;;;;;;4990782;28;20030;-72
2022/08/19 11:23:43;;;;;;;7.32;3.28;;;24.30;70.50;;;;;;5002675;28;20056;-72
2022/08/19 11:26:10;;;;;;;7.10;3.13;;;24.10;71.00;;;;;;4998575;28;20030;-72
2022/08/19 11:28:36;;;;;;;5.80;3.00;;;24.10;71.10;;;;;;4989394;28;20053;-72
2022/08/19 11:31:03;;;;;;;5.82;2.42;;;24.20;70.50;;;;;;4996826;28;20027;-73
2022/08/19 11:33:30;;;;;;;6.63;2.58;;;24.30;70.80;;;;;;4989214;28;20374;-73
2022/08/19 11:35:59;;;;;;;4.22;2.33;;;24.30;70.90;;;;;;4990664;28;20034;-72
2022/08/19 11:38:25;;;;;;;6.57;2.40;;;24.20;70.80;;;;;;4993726;28;20027;-72
2022/08/19 11:41:02;;;;;;;8.48;2.35;;;24.10;71.60;;;;;;5001933;28;20238;-72
2022/08/19 11:43:29;;;;;;;6.50;2.28;;;24.00;71.60;;;;;;5021172;28;20445;-72
2022/08/19 11:45:55;;;;;;;5.88;2.25;;;23.80;71.90;;;;;;4990168;28;20026;-72
2022/08/19 11:48:22;;;;;;;6.38;2.10;;;23.80;73.10;;;;;;4988474;28;20274;-72
2022/08/19 11:50:54;;;;;;;6.55;1.90;;;23.70;73.80;;;;;;4988028;28;20046;-72
2022/08/19 11:53:20;;;;;;;7.50;2.35;;;23.50;74.80;;;;;;4986791;28;20518;-73
2022/08/19 11:55:47;;;;;;;6.90;2.33;;;23.40;76.50;;;;;;4992964;28;20039;-72
2022/08/19 11:58:15;;;;;;;5.10;2.22;;;23.50;77.60;;;;;;4987941;28;20033;-73
2022/08/19 12:00:41;;;;;;;6.32;2.28;;;23.50;78.20;;;;;;4989869;28;20164;-73
2022/08/19 12:03:06;;;;;;;10.90;3.03;;;23.50;77.00;;;;;;4995433;28;20038;-72
2022/08/19 12:05:32;;;;;;;5.45;2.20;;;23.60;76.10;;;;;;4997479;28;20030;-73
2022/08/19 12:07:58;;;;;;;5.40;2.05;;;23.60;75.80;;;;;;4995681;28;20033;-72
2022/08/19 12:10:24;;;;;;;5.15;2.33;;;23.90;75.20;;;;;;4997149;28;20053;-73
2022/08/19 12:12:50;;;;;;;5.32;1.92;;;24.10;75.20;;;;;;5006875;28;20030;-72
2022/08/19 12:15:17;;;;;;;4.65;2.03;;;24.30;73.80;;;;;;5000654;28;20429;-73
2022/08/19 12:17:42;;;;;;;5.57;2.08;;;24.60;71.80;;;;;;4990393;28;20034;-72
2022/08/19 12:20:10;;;;;;;5.50;1.92;;;25.00;71.10;;;;;;5004234;28;20369;-74
2022/08/19 12:22:36;;;;;;;6.40;2.10;;;25.30;68.60;;;;;;4985475;28;20059;-73
2022/08/19 12:25:04;;;;;;;5.13;1.95;;;25.60;67.70;;;;;;4992311;28;20026;-73
2022/08/19 12:27:30;;;;;;;3.88;1.60;;;25.80;67.30;;;;;;4989965;28;20034;-73
2022/08/19 12:29:56;;;;;;;5.80;1.90;;;25.80;66.80;;;;;;5000245;28;20040;-72
2022/08/19 12:32:23;;;;;;;4.75;1.83;;;25.70;66.40;;;;;;4989602;28;20069;-72
2022/08/19 12:34:49;;;;;;;5.65;1.70;;;25.80;66.40;;;;;;4992853;28;20492;-73
2022/08/19 12:37:14;;;;;;;5.30;1.38;;;25.60;65.10;;;;;;4991750;28;20034;-73
2022/08/19 12:39:42;;;;;;;3.83;1.50;;;25.40;66.60;;;;;;4996582;28;20036;-73
2022/08/19 12:42:09;;;;;;;5.90;2.22;;;25.00;67.40;;;;;;4994592;28;20033;-73
2022/08/19 12:44:37;;;;;;;7.78;2.88;;;24.50;69.90;;;;;;4995216;28;20031;-72
2022/08/19 12:47:04;;;;;;;15.35;3.22;;;24.10;73.00;;;;;;5002870;28;20077;-73
2022/08/19 12:49:33;;;;;;;8.27;3.42;;;23.70;75.50;;;;;;4996693;28;20034;-73
2022/08/19 12:52:00;;;;;;;8.65;3.53;;;23.70;76.50;;;;;;4987634;28;20427;-73
2022/08/19 12:54:26;;;;;;;7.35;3.50;;;23.50;77.80;;;;;;4995044;28;20496;-73
2022/08/19 12:56:52;;;;;;;7.95;4.60;;;23.30;78.40;;;;;;4991006;28;20102;-73
2022/08/19 12:59:18;;;;;;;9.63;4.65;;;23.50;78.20;;;;;;4996779;28;20057;-72
2022/08/19 13:01:45;;;;;;;9.85;4.28;;;23.50;78.70;;;;;;4993235;28;20643;-72
2022/08/19 13:04:11;;;;;;;7.60;3.20;;;23.70;78.20;;;;;;4998846;28;20022;-72